sensor_id;sensor_type;location;lat;lon;timestamp;P1;durP1;ratioP1;P2;durP2;ratioP2
18503;SDS011;9381;54.244;10.074;2023-02-02T00:03:48;16.30;;;2.53;;
18503;SDS011;9381;54.244;10.074;2023-02-02T00:08:51;16.10;;;3.50;;
18503;SDS011;9381;54.244;10.074;2023-02-02T00:13:53;14.33;;;2.90;;
18503;SDS011;9381;54.244;10.074;2023-02-02T00:18:54;17.67;;;4.17;;
18503;SDS011;9381;54.244;10.074;2023-02-02T00:23:56;21.40;;;3.53;;
18503;SDS011;9381;54.244;10.074;2023-02-02T00:28:56;14.97;;;3.53;;
18503;SDS011;9381;54.244;10.074;2023-02-02T00:33:57;14.90;;;3.23;;
18503;SDS011;9381;54.244;10.074;2023-02-02T00:38:57;15.93;;;2.93;;
18503;SDS011;9381;54.244;10.074;2023-02-02T00:43:57;15.77;;;3.05;;
18503;SDS011;9381;54.244;10.074;2023-02-02T00:49:16;14.50;;;3.47;;
18503;SDS011;9381;54.244;10.074;2023-02-02T00:54:17;15.17;;;2.80;;
18503;SDS011;9381;54.244;10.074;2023-02-02T00:59:17;18.90;;;2.70;;
18503;SDS011;9381;54.244;10.074;2023-02-02T01:04:17;14.20;;;3.67;;
18503;SDS011;9381;54.244;10.074;2023-02-02T01:09:18;13.07;;;2.90;;
18503;SDS011;9381;54.244;10.074;2023-02-02T01:14:18;16.80;;;3.60;;
18503;SDS011;9381;54.244;10.074;2023-02-02T01:19:19;16.57;;;3.30;;
18503;SDS011;9381;54.244;10.074;2023-02-02T01:24:21;23.60;;;3.33;;
18503;SDS011;9381;54.244;10.074;2023-02-02T01:29:21;13.47;;;3.20;;
18503;SDS011;9381;54.244;10.074;2023-02-02T01:34:22;17.30;;;2.80;;
18503;SDS011;9381;54.244;10.074;2023-02-02T01:39:22;19.27;;;3.57;;
18503;SDS011;9381;54.244;10.074;2023-02-02T01:49:51;11.33;;;3.10;;
18503;SDS011;9381;54.244;10.074;2023-02-02T01:54:58;10.20;;;2.27;;
18503;SDS011;9381;54.244;10.074;2023-02-02T02:00:04;10.70;;;2.80;;
18503;SDS011;9381;54.244;10.074;2023-02-02T02:05:07;16.87;;;3.30;;
18503;SDS011;9381;54.244;10.074;2023-02-02T02:10:08;14.40;;;3.40;;
18503;SDS011;9381;54.244;10.074;2023-02-02T02:15:09;16.07;;;2.80;;
18503;SDS011;9381;54.244;10.074;2023-02-02T02:20:46;16.43;;;2.80;;
18503;SDS011;9381;54.244;10.074;2023-02-02T02:26:50;25.40;;;3.00;;
18503;SDS011;9381;54.244;10.074;2023-02-02T02:37:15;19.83;;;3.17;;
18503;SDS011;9381;54.244;10.074;2023-02-02T02:42:23;28.43;;;3.47;;
18503;SDS011;9381;54.244;10.074;2023-02-02T02:47:28;33.03;;;4.57;;
18503;SDS011;9381;54.244;10.074;2023-02-02T02:52:30;20.33;;;3.00;;
18503;SDS011;9381;54.244;10.074;2023-02-02T03:08:31;23.17;;;4.20;;
18503;SDS011;9381;54.244;10.074;2023-02-02T03:13:37;23.03;;;4.13;;
18503;SDS011;9381;54.244;10.074;2023-02-02T03:18:38;23.27;;;3.60;;
18503;SDS011;9381;54.244;10.074;2023-02-02T03:23:39;26.03;;;3.87;;
18503;SDS011;9381;54.244;10.074;2023-02-02T03:28:39;22.37;;;3.90;;
18503;SDS011;9381;54.244;10.074;2023-02-02T03:33:40;21.30;;;3.80;;
18503;SDS011;9381;54.244;10.074;2023-02-02T03:38:41;22.80;;;4.53;;
18503;SDS011;9381;54.244;10.074;2023-02-02T03:43:41;29.60;;;4.27;;
18503;SDS011;9381;54.244;10.074;2023-02-02T03:48:41;21.33;;;3.28;;
18503;SDS011;9381;54.244;10.074;2023-02-02T03:53:42;22.48;;;3.85;;
18503;SDS011;9381;54.244;10.074;2023-02-02T03:58:48;22.33;;;4.47;;
18503;SDS011;9381;54.244;10.074;2023-02-02T04:03:49;21.60;;;3.73;;
18503;SDS011;9381;54.244;10.074;2023-02-02T04:08:49;19.80;;;3.27;;
18503;SDS011;9381;54.244;10.074;2023-02-02T04:13:50;23.47;;;3.50;;
18503;SDS011;9381;54.244;10.074;2023-02-02T04:18:50;28.63;;;3.90;;
18503;SDS011;9381;54.244;10.074;2023-02-02T04:23:50;13.43;;;3.30;;
18503;SDS011;9381;54.244;10.074;2023-02-02T04:28:51;26.63;;;4.87;;
18503;SDS011;9381;54.244;10.074;2023-02-02T04:33:52;18.97;;;3.30;;
18503;SDS011;9381;54.244;10.074;2023-02-02T04:38:53;22.20;;;3.50;;
18503;SDS011;9381;54.244;10.074;2023-02-02T04:43:54;12.80;;;2.67;;
18503;SDS011;9381;54.244;10.074;2023-02-02T04:48:54;12.07;;;3.43;;
18503;SDS011;9381;54.244;10.074;2023-02-02T04:53:55;10.93;;;2.00;;
18503;SDS011;9381;54.244;10.074;2023-02-02T04:58:55;13.98;;;2.20;;
18503;SDS011;9381;54.244;10.074;2023-02-02T05:03:55;7.72;;;2.22;;
18503;SDS011;9381;54.244;10.074;2023-02-02T05:08:56;13.33;;;2.90;;
18503;SDS011;9381;54.244;10.074;2023-02-02T05:13:56;13.63;;;2.40;;
18503;SDS011;9381;54.244;10.074;2023-02-02T05:18:57;19.53;;;2.87;;
18503;SDS011;9381;54.244;10.074;2023-02-02T05:23:58;13.37;;;2.23;;
18503;SDS011;9381;54.244;10.074;2023-02-02T05:29:00;20.23;;;2.63;;
18503;SDS011;9381;54.244;10.074;2023-02-02T05:34:00;15.50;;;2.03;;
18503;SDS011;9381;54.244;10.074;2023-02-02T05:39:01;14.80;;;2.43;;
18503;SDS011;9381;54.244;10.074;2023-02-02T05:44:01;14.93;;;2.90;;
18503;SDS011;9381;54.244;10.074;2023-02-02T05:49:02;13.33;;;2.70;;
18503;SDS011;9381;54.244;10.074;2023-02-02T05:54:04;18.73;;;2.60;;
18503;SDS011;9381;54.244;10.074;2023-02-02T05:59:04;14.80;;;2.80;;
18503;SDS011;9381;54.244;10.074;2023-02-02T06:04:06;15.77;;;2.97;;
18503;SDS011;9381;54.244;10.074;2023-02-02T06:09:06;16.48;;;2.53;;
18503;SDS011;9381;54.244;10.074;2023-02-02T06:14:07;16.37;;;3.43;;
18503;SDS011;9381;54.244;10.074;2023-02-02T06:19:07;18.00;;;2.60;;
18503;SDS011;9381;54.244;10.074;2023-02-02T06:24:08;17.23;;;3.58;;
18503;SDS011;9381;54.244;10.074;2023-02-02T06:29:11;22.27;;;6.28;;
18503;SDS011;9381;54.244;10.074;2023-02-02T06:34:12;16.63;;;3.10;;
18503;SDS011;9381;54.244;10.074;2023-02-02T06:39:13;11.93;;;2.13;;
18503;SDS011;9381;54.244;10.074;2023-02-02T06:44:13;11.98;;;2.65;;
18503;SDS011;9381;54.244;10.074;2023-02-02T06:49:14;13.13;;;2.43;;
18503;SDS011;9381;54.244;10.074;2023-02-02T06:54:14;9.10;;;2.53;;
18503;SDS011;9381;54.244;10.074;2023-02-02T06:59:15;10.85;;;2.63;;
18503;SDS011;9381;54.244;10.074;2023-02-02T07:04:16;11.50;;;2.55;;
18503;SDS011;9381;54.244;10.074;2023-02-02T07:09:17;17.20;;;3.10;;
18503;SDS011;9381;54.244;10.074;2023-02-02T07:14:17;14.03;;;2.80;;
18503;SDS011;9381;54.244;10.074;2023-02-02T07:19:17;17.40;;;2.45;;
18503;SDS011;9381;54.244;10.074;2023-02-02T07:24:18;20.47;;;3.17;;
18503;SDS011;9381;54.244;10.074;2023-02-02T07:29:18;16.33;;;2.73;;
18503;SDS011;9381;54.244;10.074;2023-02-02T07:34:18;15.88;;;2.65;;
18503;SDS011;9381;54.244;10.074;2023-02-02T07:39:19;18.88;;;2.70;;
18503;SDS011;9381;54.244;10.074;2023-02-02T07:44:19;10.25;;;2.17;;
18503;SDS011;9381;54.244;10.074;2023-02-02T07:49:19;11.80;;;2.50;;
18503;SDS011;9381;54.244;10.074;2023-02-02T07:54:19;12.30;;;2.00;;
18503;SDS011;9381;54.244;10.074;2023-02-02T07:59:20;9.77;;;2.43;;
18503;SDS011;9381;54.244;10.074;2023-02-02T08:04:20;10.00;;;2.17;;
18503;SDS011;9381;54.244;10.074;2023-02-02T08:09:21;15.68;;;2.20;;
18503;SDS011;9381;54.244;10.074;2023-02-02T08:14:22;8.27;;;2.80;;
18503;SDS011;9381;54.244;10.074;2023-02-02T08:19:22;9.70;;;2.75;;
18503;SDS011;9381;54.244;10.074;2023-02-02T08:24:22;9.43;;;2.22;;
18503;SDS011;9381;54.244;10.074;2023-02-02T08:29:22;11.02;;;2.33;;
18503;SDS011;9381;54.244;10.074;2023-02-02T08:34:23;15.27;;;2.58;;
18503;SDS011;9381;54.244;10.074;2023-02-02T08:39:23;9.70;;;2.10;;
18503;SDS011;9381;54.244;10.074;2023-02-02T08:44:23;13.43;;;2.65;;
18503;SDS011;9381;54.244;10.074;2023-02-02T08:49:24;10.53;;;2.10;;
18503;SDS011;9381;54.244;10.074;2023-02-02T08:54:24;9.70;;;3.13;;
18503;SDS011;9381;54.244;10.074;2023-02-02T08:59:25;9.55;;;2.00;;
18503;SDS011;9381;54.244;10.074;2023-02-02T09:04:25;13.47;;;2.77;;
18503;SDS011;9381;54.244;10.074;2023-02-02T09:09:26;12.47;;;2.50;;
18503;SDS011;9381;54.244;10.074;2023-02-02T09:14:26;14.27;;;2.45;;
18503;SDS011;9381;54.244;10.074;2023-02-02T09:19:27;15.50;;;2.77;;
18503;SDS011;9381;54.244;10.074;2023-02-02T09:24:27;14.13;;;2.30;;
18503;SDS011;9381;54.244;10.074;2023-02-02T09:29:27;17.63;;;2.83;;
18503;SDS011;9381;54.244;10.074;2023-02-02T09:34:28;10.33;;;2.37;;
18503;SDS011;9381;54.244;10.074;2023-02-02T09:39:28;10.83;;;2.10;;
18503;SDS011;9381;54.244;10.074;2023-02-02T09:49:59;16.53;;;2.53;;
18503;SDS011;9381;54.244;10.074;2023-02-02T09:55:11;11.83;;;2.13;;
18503;SDS011;9381;54.244;10.074;2023-02-02T10:00:31;13.30;;;2.70;;
18503;SDS011;9381;54.244;10.074;2023-02-02T10:05:44;12.37;;;2.10;;
18503;SDS011;9381;54.244;10.074;2023-02-02T10:10:50;10.37;;;2.50;;
18503;SDS011;9381;54.244;10.074;2023-02-02T10:16:05;8.53;;;2.37;;
18503;SDS011;9381;54.244;10.074;2023-02-02T10:21:11;11.30;;;3.00;;
18503;SDS011;9381;54.244;10.074;2023-02-02T10:26:20;12.97;;;2.80;;
18503;SDS011;9381;54.244;10.074;2023-02-02T10:31:42;10.07;;;2.20;;
18503;SDS011;9381;54.244;10.074;2023-02-02T10:36:53;12.07;;;2.73;;
18503;SDS011;9381;54.244;10.074;2023-02-02T10:47:39;9.17;;;2.17;;
18503;SDS011;9381;54.244;10.074;2023-02-02T10:52:42;13.05;;;2.60;;
18503;SDS011;9381;54.244;10.074;2023-02-02T10:57:48;9.10;;;2.20;;
18503;SDS011;9381;54.244;10.074;2023-02-02T11:02:49;8.70;;;2.30;;
18503;SDS011;9381;54.244;10.074;2023-02-02T11:07:52;8.53;;;2.33;;
18503;SDS011;9381;54.244;10.074;2023-02-02T11:12:53;6.27;;;2.10;;
18503;SDS011;9381;54.244;10.074;2023-02-02T11:17:56;7.50;;;1.90;;
18503;SDS011;9381;54.244;10.074;2023-02-02T11:23:16;8.87;;;2.17;;
18503;SDS011;9381;54.244;10.074;2023-02-02T11:28:18;12.57;;;2.37;;
18503;SDS011;9381;54.244;10.074;2023-02-02T11:38:27;13.23;;;3.53;;
18503;SDS011;9381;54.244;10.074;2023-02-02T11:43:29;10.10;;;2.00;;
18503;SDS011;9381;54.244;10.074;2023-02-02T11:48:33;16.70;;;3.03;;
18503;SDS011;9381;54.244;10.074;2023-02-02T11:53:39;8.80;;;2.10;;
18503;SDS011;9381;54.244;10.074;2023-02-02T11:58:47;10.07;;;2.43;;
18503;SDS011;9381;54.244;10.074;2023-02-02T12:03:49;7.93;;;2.40;;
18503;SDS011;9381;54.244;10.074;2023-02-02T12:08:53;10.30;;;2.90;;
18503;SDS011;9381;54.244;10.074;2023-02-02T12:19:17;8.00;;;1.80;;
18503;SDS011;9381;54.244;10.074;2023-02-02T12:24:30;11.13;;;2.90;;
18503;SDS011;9381;54.244;10.074;2023-02-02T12:45:41;15.63;;;2.07;;
18503;SDS011;9381;54.244;10.074;2023-02-02T13:07:01;9.50;;;2.13;;
18503;SDS011;9381;54.244;10.074;2023-02-02T13:12:16;9.00;;;1.50;;
18503;SDS011;9381;54.244;10.074;2023-02-02T13:17:24;8.63;;;1.57;;
18503;SDS011;9381;54.244;10.074;2023-02-02T13:22:31;13.00;;;2.53;;
18503;SDS011;9381;54.244;10.074;2023-02-02T13:27:35;8.13;;;1.83;;
18503;SDS011;9381;54.244;10.074;2023-02-02T13:32:38;12.40;;;2.23;;
18503;SDS011;9381;54.244;10.074;2023-02-02T13:37:52;6.00;;;1.73;;
18503;SDS011;9381;54.244;10.074;2023-02-02T14:04:29;9.20;;;2.30;;
18503;SDS011;9381;54.244;10.074;2023-02-02T14:09:31;6.47;;;1.40;;
18503;SDS011;9381;54.244;10.074;2023-02-02T14:14:34;4.77;;;1.47;;
18503;SDS011;9381;54.244;10.074;2023-02-02T14:24:48;11.93;;;1.90;;
18503;SDS011;9381;54.244;10.074;2023-02-02T14:34:53;7.00;;;2.08;;
18503;SDS011;9381;54.244;10.074;2023-02-02T14:50:17;5.40;;;1.90;;
18503;SDS011;9381;54.244;10.074;2023-02-02T14:55:22;7.23;;;1.87;;
18503;SDS011;9381;54.244;10.074;2023-02-02T15:00:28;4.27;;;1.40;;
18503;SDS011;9381;54.244;10.074;2023-02-02T15:15:59;8.23;;;2.10;;
18503;SDS011;9381;54.244;10.074;2023-02-02T15:21:06;3.70;;;2.30;;
18503;SDS011;9381;54.244;10.074;2023-02-02T15:26:16;10.00;;;2.27;;
18503;SDS011;9381;54.244;10.074;2023-02-02T15:31:33;7.53;;;2.23;;
18503;SDS011;9381;54.244;10.074;2023-02-02T15:36:40;7.97;;;1.87;;
18503;SDS011;9381;54.244;10.074;2023-02-02T15:41:42;11.30;;;1.90;;
18503;SDS011;9381;54.244;10.074;2023-02-02T15:46:44;10.97;;;2.13;;
18503;SDS011;9381;54.244;10.074;2023-02-02T15:51:47;12.67;;;2.30;;
18503;SDS011;9381;54.244;10.074;2023-02-02T15:56:49;8.43;;;1.73;;
18503;SDS011;9381;54.244;10.074;2023-02-02T16:01:52;7.00;;;2.20;;
18503;SDS011;9381;54.244;10.074;2023-02-02T16:07:02;10.90;;;2.23;;
18503;SDS011;9381;54.244;10.074;2023-02-02T16:12:04;6.63;;;1.93;;
18503;SDS011;9381;54.244;10.074;2023-02-02T16:17:50;12.90;;;2.40;;
18503;SDS011;9381;54.244;10.074;2023-02-02T16:22:31;11.93;;;1.93;;
18503;SDS011;9381;54.244;10.074;2023-02-02T16:27:32;5.80;;;2.13;;
18503;SDS011;9381;54.244;10.074;2023-02-02T16:32:34;13.77;;;2.37;;
18503;SDS011;9381;54.244;10.074;2023-02-02T16:37:38;10.93;;;2.37;;
18503;SDS011;9381;54.244;10.074;2023-02-02T16:42:39;8.10;;;2.40;;
18503;SDS011;9381;54.244;10.074;2023-02-02T16:47:39;10.53;;;2.10;;
18503;SDS011;9381;54.244;10.074;2023-02-02T16:58:22;9.13;;;2.90;;
18503;SDS011;9381;54.244;10.074;2023-02-02T17:03:30;12.97;;;4.07;;
18503;SDS011;9381;54.244;10.074;2023-02-02T17:08:35;9.37;;;4.30;;
18503;SDS011;9381;54.244;10.074;2023-02-02T17:13:38;10.40;;;4.50;;
18503;SDS011;9381;54.244;10.074;2023-02-02T17:18:39;14.27;;;4.83;;
18503;SDS011;9381;54.244;10.074;2023-02-02T17:23:40;15.33;;;4.70;;
18503;SDS011;9381;54.244;10.074;2023-02-02T17:28:40;9.90;;;4.07;;
18503;SDS011;9381;54.244;10.074;2023-02-02T17:33:41;15.40;;;3.90;;
18503;SDS011;9381;54.244;10.074;2023-02-02T17:38:45;13.03;;;4.17;;
18503;SDS011;9381;54.244;10.074;2023-02-02T17:43:45;7.88;;;4.07;;
18503;SDS011;9381;54.244;10.074;2023-02-02T17:48:45;9.37;;;4.53;;
18503;SDS011;9381;54.244;10.074;2023-02-02T17:53:46;12.33;;;5.43;;
18503;SDS011;9381;54.244;10.074;2023-02-02T17:58:46;13.37;;;7.50;;
18503;SDS011;9381;54.244;10.074;2023-02-02T18:03:47;16.53;;;9.00;;
18503;SDS011;9381;54.244;10.074;2023-02-02T18:08:47;18.70;;;8.27;;
18503;SDS011;9381;54.244;10.074;2023-02-02T18:13:47;12.07;;;6.43;;
18503;SDS011;9381;54.244;10.074;2023-02-02T18:18:47;18.42;;;9.07;;
18503;SDS011;9381;54.244;10.074;2023-02-02T18:23:48;15.93;;;8.10;;
18503;SDS011;9381;54.244;10.074;2023-02-02T18:28:49;15.27;;;6.60;;
18503;SDS011;9381;54.244;10.074;2023-02-02T18:33:50;11.53;;;5.47;;
18503;SDS011;9381;54.244;10.074;2023-02-02T18:38:50;12.03;;;5.37;;
18503;SDS011;9381;54.244;10.074;2023-02-02T18:43:53;18.40;;;6.97;;
18503;SDS011;9381;54.244;10.074;2023-02-02T18:48:54;16.07;;;6.47;;
18503;SDS011;9381;54.244;10.074;2023-02-02T18:53:54;16.00;;;6.90;;
18503;SDS011;9381;54.244;10.074;2023-02-02T18:58:59;13.63;;;6.93;;
18503;SDS011;9381;54.244;10.074;2023-02-02T19:03:59;16.27;;;7.53;;
18503;SDS011;9381;54.244;10.074;2023-02-02T19:09:00;17.37;;;8.13;;
18503;SDS011;9381;54.244;10.074;2023-02-02T19:14:00;13.53;;;7.83;;
18503;SDS011;9381;54.244;10.074;2023-02-02T19:19:07;19.50;;;8.00;;
18503;SDS011;9381;54.244;10.074;2023-02-02T19:24:12;21.40;;;7.93;;
18503;SDS011;9381;54.244;10.074;2023-02-02T19:29:14;18.47;;;7.80;;
18503;SDS011;9381;54.244;10.074;2023-02-02T19:34:19;18.47;;;6.87;;
18503;SDS011;9381;54.244;10.074;2023-02-02T19:39:24;20.07;;;6.90;;
18503;SDS011;9381;54.244;10.074;2023-02-02T19:44:30;23.23;;;8.90;;
18503;SDS011;9381;54.244;10.074;2023-02-02T19:49:32;17.73;;;7.40;;
18503;SDS011;9381;54.244;10.074;2023-02-02T19:54:35;18.23;;;7.23;;
18503;SDS011;9381;54.244;10.074;2023-02-02T19:59:38;17.27;;;6.90;;
18503;SDS011;9381;54.244;10.074;2023-02-02T20:04:40;20.57;;;8.50;;
18503;SDS011;9381;54.244;10.074;2023-02-02T20:09:41;19.23;;;6.77;;
18503;SDS011;9381;54.244;10.074;2023-02-02T20:14:42;18.50;;;6.70;;
18503;SDS011;9381;54.244;10.074;2023-02-02T20:19:43;20.17;;;7.05;;
18503;SDS011;9381;54.244;10.074;2023-02-02T20:24:45;14.90;;;6.13;;
18503;SDS011;9381;54.244;10.074;2023-02-02T20:29:48;15.60;;;6.40;;
18503;SDS011;9381;54.244;10.074;2023-02-02T20:34:49;21.67;;;6.40;;
18503;SDS011;9381;54.244;10.074;2023-02-02T20:39:58;16.60;;;6.20;;
18503;SDS011;9381;54.244;10.074;2023-02-02T20:45:00;13.40;;;5.47;;
18503;SDS011;9381;54.244;10.074;2023-02-02T20:50:00;17.90;;;4.75;;
18503;SDS011;9381;54.244;10.074;2023-02-02T20:55:03;11.67;;;4.40;;
18503;SDS011;9381;54.244;10.074;2023-02-02T21:00:04;12.67;;;4.00;;
18503;SDS011;9381;54.244;10.074;2023-02-02T21:05:07;11.20;;;4.53;;
18503;SDS011;9381;54.244;10.074;2023-02-02T21:10:08;9.13;;;3.17;;
18503;SDS011;9381;54.244;10.074;2023-02-02T21:15:08;8.63;;;3.07;;
18503;SDS011;9381;54.244;10.074;2023-02-02T21:20:10;8.53;;;2.87;;
18503;SDS011;9381;54.244;10.074;2023-02-02T21:25:11;9.03;;;3.10;;
18503;SDS011;9381;54.244;10.074;2023-02-02T21:30:12;8.10;;;2.60;;
18503;SDS011;9381;54.244;10.074;2023-02-02T21:35:13;6.47;;;3.07;;
18503;SDS011;9381;54.244;10.074;2023-02-02T21:40:14;8.70;;;2.93;;
18503;SDS011;9381;54.244;10.074;2023-02-02T21:50:28;14.47;;;4.40;;
18503;SDS011;9381;54.244;10.074;2023-02-02T21:55:35;16.27;;;5.03;;
18503;SDS011;9381;54.244;10.074;2023-02-02T22:00:37;12.83;;;4.23;;
18503;SDS011;9381;54.244;10.074;2023-02-02T22:05:37;12.03;;;4.47;;
18503;SDS011;9381;54.244;10.074;2023-02-02T22:10:38;15.20;;;5.83;;
18503;SDS011;9381;54.244;10.074;2023-02-02T22:15:42;13.10;;;6.20;;
18503;SDS011;9381;54.244;10.074;2023-02-02T22:20:47;18.40;;;7.73;;
18503;SDS011;9381;54.244;10.074;2023-02-02T22:25:58;14.43;;;6.90;;
18503;SDS011;9381;54.244;10.074;2023-02-02T22:30:58;16.90;;;7.23;;
18503;SDS011;9381;54.244;10.074;2023-02-02T22:35:59;11.07;;;6.07;;
18503;SDS011;9381;54.244;10.074;2023-02-02T22:41:00;14.33;;;6.97;;
18503;SDS011;9381;54.244;10.074;2023-02-02T22:46:00;18.23;;;8.55;;
18503;SDS011;9381;54.244;10.074;2023-02-02T22:51:01;18.23;;;8.03;;
18503;SDS011;9381;54.244;10.074;2023-02-02T22:56:02;14.43;;;7.87;;
18503;SDS011;9381;54.244;10.074;2023-02-02T23:01:02;20.20;;;8.23;;
18503;SDS011;9381;54.244;10.074;2023-02-02T23:06:04;15.17;;;7.53;;
18503;SDS011;9381;54.244;10.074;2023-02-02T23:11:04;18.90;;;7.87;;
18503;SDS011;9381;54.244;10.074;2023-02-02T23:16:04;16.87;;;7.37;;
18503;SDS011;9381;54.244;10.074;2023-02-02T23:21:05;17.70;;;7.90;;
18503;SDS011;9381;54.244;10.074;2023-02-02T23:26:06;13.65;;;6.80;;
18503;SDS011;9381;54.244;10.074;2023-02-02T23:31:06;13.32;;;7.15;;
18503;SDS011;9381;54.244;10.074;2023-02-02T23:36:06;11.20;;;6.80;;
18503;SDS011;9381;54.244;10.074;2023-02-02T23:41:07;11.87;;;6.90;;
18503;SDS011;9381;54.244;10.074;2023-02-02T23:46:08;13.60;;;6.47;;
18503;SDS011;9381;54.244;10.074;2023-02-02T23:51:09;9.50;;;5.60;;
18503;SDS011;9381;54.244;10.074;2023-02-02T23:56:09;9.93;;;5.73;;
